In Rescue
 
Open Full Screen Window  High Contrast Mode
Wind Gusting 00 knots
05
October 30, 2020 1:14 AM EDT
Weather Information
Wind Direction
  010 °
Wind Speed
  05 kt (6 mph)
Wind Gust
  00 kt (0 mph)
Altimeter
30.09 in
Visibility
10 SM
Temperature
00° C
32° F
Dewpoint
-06° C
21° F
Humidity
64%
Sky Condition
Overcast @ 3,000 ft
MVFR

METAR KSJX 300514Z AUTO 01005KT 10SM OVC030 00/M06 A3009 RMK AO2 T10011061

FAA Disclaimer: The data displayed is for advisory purposes only and is not to be used for flight planning or operations.